地図

経路データ

SID SEASON NUMBER BASIN SUBBASIN NAME ISO_TIME NATURE LAT LON WMO_WIND WMO_PRES WMO_AGENCY TRACK_TYPE DIST2LAND LANDFALL IFLAG USA_AGENCY USA_ATCF_ID USA_LAT USA_LON USA_RECORD USA_STATUS USA_WIND USA_PRES USA_SSHS USA_R34_NE USA_R34_SE USA_R34_SW USA_R34_NW USA_R50_NE USA_R50_SE USA_R50_SW USA_R50_NW USA_R64_NE USA_R64_SE USA_R64_SW USA_R64_NW USA_POCI USA_ROCI USA_RMW USA_EYE TOKYO_LAT TOKYO_LON TOKYO_GRADE TOKYO_WIND TOKYO_PRES TOKYO_R50_DIR TOKYO_R50_LONG TOKYO_R50_SHORT TOKYO_R30_DIR TOKYO_R30_LONG TOKYO_R30_SHORT TOKYO_LAND CMA_LAT CMA_LON CMA_CAT CMA_WIND CMA_PRES HKO_LAT HKO_LON HKO_CAT HKO_WIND HKO_PRES NEWDELHI_LAT NEWDELHI_LON NEWDELHI_GRADE NEWDELHI_WIND NEWDELHI_PRES NEWDELHI_CI NEWDELHI_DP NEWDELHI_POCI REUNION_LAT REUNION_LON REUNION_TYPE REUNION_WIND REUNION_PRES REUNION_TNUM REUNION_CI REUNION_RMW REUNION_R34_NE REUNION_R34_SE REUNION_R34_SW REUNION_R34_NW REUNION_R50_NE REUNION_R50_SE REUNION_R50_SW REUNION_R50_NW REUNION_R64_NE REUNION_R64_SE REUNION_R64_SW REUNION_R64_NW BOM_LAT BOM_LON BOM_TYPE BOM_WIND BOM_PRES BOM_TNUM BOM_CI BOM_RMW BOM_R34_NE BOM_R34_SE BOM_R34_SW BOM_R34_NW BOM_R50_NE BOM_R50_SE BOM_R50_SW BOM_R50_NW BOM_R64_NE BOM_R64_SE BOM_R64_SW BOM_R64_NW BOM_ROCI BOM_POCI BOM_EYE BOM_POS_METHOD BOM_PRES_METHOD NADI_LAT NADI_LON NADI_CAT NADI_WIND NADI_PRES WELLINGTON_LAT WELLINGTON_LON WELLINGTON_WIND WELLINGTON_PRES DS824_LAT DS824_LON DS824_STAGE DS824_WIND DS824_PRES TD9636_LAT TD9636_LON TD9636_STAGE TD9636_WIND TD9636_PRES TD9635_LAT TD9635_LON TD9635_WIND TD9635_PRES TD9635_ROCI NEUMANN_LAT NEUMANN_LON NEUMANN_CLASS NEUMANN_WIND NEUMANN_PRES MLC_LAT MLC_LON MLC_CLASS MLC_WIND MLC_PRES USA_GUST BOM_GUST BOM_GUST_PER REUNION_GUST REUNION_GUST_PER USA_SEAHGT USA_SEARAD_NE USA_SEARAD_SE USA_SEARAD_SW USA_SEARAD_NW STORM_SPEED STORM_DIR
1965051S19041 1965 22 SI MM LESLEY 1965-02-20 06:00:00 TS -18.6400 41.4200 reunion main 275 275 O____O___OO_O_ jtwc_sh SH281965 -18.8000 41.7000 -1 -18.4000 41.0000 2 9.90000 -18.8000 41.7000 TC 25 -18.8000 41.7000 7 -18.4000 41.0000 TC 30 3 193
1965051S19041 1965 22 SI MM LESLEY 1965-02-20 09:00:00 TS -18.7945 41.3903 main 277 277 P____P___PP_P_ SH281965 -19.0075 41.6500 -1 -18.4850 41.0000 2 -19.0075 41.6500 TC 25 -18.9875 41.6516 7 -18.4850 41.0000 TC 30 3 190
1965051S19041 1965 22 SI MM LESLEY 1965-02-20 12:00:00 TS -18.9540 41.3605 reunion main 281 281 O____O___OP_O_ jtwc_sh SH281965 -19.2000 41.6000 -1 -18.6000 41.0000 99 9.90000 -19.2000 41.6000 TC 25 -19.1700 41.6026 7 -18.6000 41.0000 TC 30 3 191
1965051S19041 1965 22 SI MM LESLEY 1965-02-20 15:00:00 TS -19.1175 41.3304 main 294 294 P____P___PP_P_ SH281965 -19.3650 41.5500 -1 -18.7575 41.0000 99 -19.3650 41.5500 TC 25 -19.3425 41.5522 7 -18.7575 41.0000 TC 32 3 191
1965051S19041 1965 22 SI MM LESLEY 1965-02-20 18:00:00 TS -19.2600 41.3000 reunion main 301 301 O____O___OO_O_ jtwc_sh SH281965 -19.5000 41.5000 -1 -18.9000 41.0000 99 9.90000 -19.5000 41.5000 TC 25 -19.5000 41.5000 1 -18.9000 41.0000 TC 35 2 194
1965051S19041 1965 22 SI MM LESLEY 1965-02-20 21:00:00 TS -19.3509 41.2692 main 305 305 P____P___PP_P_ SH281965 -19.6000 41.4500 -1 -18.9575 41.0000 99 -19.6000 41.4500 TC 25 -19.6394 41.4459 1 -18.9575 41.0000 TC 35 2 197
1965051S19041 1965 22 SI MM LESLEY 1965-02-21 00:00:00 TS -19.4330 41.2385 reunion main 315 315 O____O___OP_O_ jtwc_sh SH281965 -19.7000 41.4000 -1 -19.0000 41.0000 99 9.90000 -19.7000 41.4000 TC 25 -19.7650 41.3925 1 -19.0000 41.0000 TC 35 2 196
1965051S19041 1965 22 SI MM LESLEY 1965-02-21 03:00:00 TS -19.5446 41.2115 main 317 305 P____P___PP_P_ SH281965 -19.8500 41.3500 -1 -19.0700 41.0075 99 -19.8500 41.3500 TC 25 -19.8831 41.3428 1 -19.0700 41.0075 TC 37 3 193
1965051S19041 1965 22 SI MM LESLEY 1965-02-21 06:00:00 TS -19.6800 41.1800 reunion main 305 298 O____O___OO_O_ jtwc_sh SH281965 -20.0000 41.3000 -1 -19.2000 41.0000 3 9.90000 -20.0000 41.3000 TC 25 -20.0000 41.3000 1 -19.2000 41.0000 TC 40 3 193
1965051S19041 1965 22 SI MM LESLEY 1965-02-21 09:00:00 TS -19.8412 41.1336 main 307 294 P____P___PP_P_ SH281965 -20.1000 41.2425 -1 -19.4425 40.9575 3 -20.1000 41.2425 TC 25 -20.1209 41.2678 1 -19.4425 40.9575 TC 40 3 195
1965051S19041 1965 22 SI MM LESLEY 1965-02-21 12:00:00 TS -20.0085 41.0885 reunion main 294 283 O____O___OP_O_ jtwc_sh SH281965 -20.2000 41.2000 -1 -19.7000 40.9000 99 9.90000 -20.2000 41.2000 TC 25 -20.2425 41.2424 1 -19.7000 40.9000 TC 40 3 191
1965051S19041 1965 22 SI MM LESLEY 1965-02-21 15:00:00 TS -20.1595 41.0672 main 283 278 P____P___PP_P_ SH281965 -20.3425 41.1925 -1 -19.8725 40.8650 99 -20.3425 41.1925 TC 25 -20.3678 41.2209 1 -19.8725 40.8650 TC 40 3 187
1965051S19041 1965 22 SI MM LESLEY 1965-02-21 18:00:00 TS -20.3000 41.0400 reunion main 287 282 O____O___OO_O_ jtwc_sh SH281965 -20.5000 41.2000 -1 -20.0000 40.8000 99 9.90000 -20.5000 41.2000 TC 25 -20.5000 41.2000 1 -20.0000 40.8000 TC 40 3 199
1965051S19041 1965 22 SI MM LESLEY 1965-02-21 21:00:00 TS -20.4242 40.9758 main 282 278 P____P___PP_P_ SH281965 -20.6500 41.2075 -1 -20.0851 40.6425 99 -20.6500 41.2075 TC 25 -20.6509 41.1790 1 -20.0851 40.6425 TC 42 3 205
1965051S19041 1965 22 SI MM LESLEY 1965-02-22 00:00:00 TS -20.5615 40.9115 reunion main 284 280 O____O___OP_O_ jtwc_sh SH281965 -20.8000 41.2000 -1 -20.2000 40.5000 99 9.90000 -20.8000 41.2000 TC 25 -20.8075 41.1575 1 -20.2000 40.5000 TC 45 3 196
1965051S19041 1965 22 SI MM LESLEY 1965-02-22 03:00:00 TS -20.7521 40.8834 main 277 275 P____P___PP_P_ SH281965 -20.9575 41.1575 -1 -20.4425 40.4849 99 -20.9575 41.1575 TC 25 -20.9603 41.1322 1 -20.4425 40.4849 TC 45 4 187
1965051S19041 1965 22 SI MM LESLEY 1965-02-22 06:00:00 TS -20.9400 40.8600 reunion main 275 272 O____O___OO_O_ jtwc_sh SH281965 -21.1000 41.1000 -1 -20.7000 40.5000 3 9.90000 -21.1000 41.1000 TC 25 -21.1000 41.1000 1 -20.7000 40.5000 TC 45 3 192
1965051S19041 1965 22 SI MM LESLEY 1965-02-22 09:00:00 TS -21.0664 40.8114 main 276 271 P____P___PP_P_ SH281965 -21.2075 41.0500 -1 -20.8575 40.4500 3 -21.2075 41.0500 TC 25 -21.2022 41.0571 1 -20.8575 40.4500 TC 42 3 200
1965051S19041 1965 22 SI MM LESLEY 1965-02-22 12:00:00 TS -21.1785 40.7615 reunion main 271 271 O____O___OP_O_ jtwc_sh SH281965 -21.3000 41.0000 -1 -21.0000 40.4000 99 9.90000 -21.3000 41.0000 TC 25 -21.2925 41.0074 1 -21.0000 40.4000 TC 40 3 197
1965051S19041 1965 22 SI MM LESLEY 1965-02-22 15:00:00 TS -21.3143 40.7248 main 277 269 P____P___PP_P_ SH281965 -21.4000 40.9500 -1 -21.1925 40.3850 99 -21.4000 40.9500 TC 25 -21.3866 40.9540 1 -21.1925 40.3850 TC 40 3 192
1965051S19041 1965 22 SI MM LESLEY 1965-02-22 18:00:00 TS -21.4600 40.7000 reunion main 269 266 O____O___OO_O_ jtwc_sh SH281965 -21.5000 40.9000 -1 -21.4000 40.4000 99 9.90000 -21.5000 40.9000 TC 25 -21.5000 40.9000 1 -21.4000 40.4000 TC 40 3 189
1965051S19041 1965 22 SI MM LESLEY 1965-02-22 21:00:00 TS -21.5936 40.6840 main 266 263 P____P___PP_P_ SH281965 -21.5775 40.8500 -1 -21.6000 40.4350 99 -21.5775 40.8500 TC 25 -21.6128 40.8499 1 -21.6000 40.4350 TC 37 3 182
1965051S19041 1965 22 SI MM LESLEY 1965-02-23 00:00:00 TS -21.7505 40.6800 reunion main 261 259 O____O___OP_O_ jtwc_sh SH281965 -21.7000 40.8000 -1 -21.8000 40.5000 99 9.90000 -21.7000 40.8000 TC 25 -21.7525 40.7998 1 -21.8000 40.5000 TC 35 3 0
1965051S19041 1965 22 SI MM LESLEY 1965-02-23 03:00:00 TS -21.9232 40.7078 main 259 257 P____P___PP_P_ SH281965 -21.9050 40.7500 -1 -21.9325 40.6446 99 -21.9050 40.7500 TC 25 -21.9410 40.7499 1 -21.9325 40.6446 TC 35 5 0
1965051S19041 1965 22 SI MM LESLEY 1965-02-23 06:00:00 TS -22.2000 40.7000 reunion main 257 257 O____O___OO_O_ jtwc_sh SH281965 -22.2000 40.7000 -1 -22.2000 40.7000 3 9.90000 -22.2000 40.7000 TC 25 -22.2000 40.7000 1 -22.2000 40.7000 TC 35 7 189
1965051S19041 1965 22 SI MM LESLEY 1965-02-23 09:00:00 TS -22.6539 40.5861 main 270 270 P____P___PP_P_ SH281965 -22.5700 40.6500 -1 -22.7902 40.4882 3 -22.5700 40.6500 TC 25 -22.5491 40.6540 1 -22.7902 40.4882 TC 32 10 194
1965051S19041 1965 22 SI MM LESLEY 1965-02-23 12:00:00 TS -23.1935 40.4415 reunion main 304 304 O____O___OP_O_ jtwc_sh SH281965 -23.0000 40.6000 -1 -23.5000 40.2000 99 9.90000 -23.0000 40.6000 TC 25 -22.9675 40.6073 1 -23.5000 40.2000 TC 30 11 192
1965051S19041 1965 22 SI MM LESLEY 1965-02-23 15:00:00 TS -23.6994 40.3511 main 322 322 P____P___PP_P_ SH281965 -23.4425 40.5500 -1 -24.0924 40.0493 99 -23.4425 40.5500 TC 25 -23.4272 40.5570 1 -24.0924 40.0493 TC 30 10 189
1965051S19041 1965 22 SI MM LESLEY 1965-02-23 18:00:00 TS -24.2200 40.2600 reunion main 339 339 O____O___OO_O_ jtwc_sh SH281965 -23.9000 40.5000 -1 -24.7000 39.9000 99 9.90000 -23.9000 40.5000 TC 25 -23.9000 40.5000 1 -24.7000 39.9000 TC 30 11 191
1965051S19041 1965 22 SI MM LESLEY 1965-02-23 21:00:00 TS -24.7612 40.1266 main 372 372 P____P___PP_P_ SH281965 -24.3500 40.4574 -1 -25.3776 39.6429 99 -24.3500 40.4574 TC 25 -24.3509 40.4322 1 -25.3776 39.6429 TC 27 10 190
1965051S19041 1965 22 SI MM LESLEY 1965-02-24 00:00:00 TS -25.2350 40.0572 reunion main 378 378 O____O___OP_O_ jtwc_sh SH281965 -24.8000 40.4000 -1 -26.1000 39.4000 99 9.90000 -24.8000 40.4000 TC 25 -24.8075 40.3575 1 -26.1000 39.4000 TC 25 9 185
1965051S19041 1965 22 SI MM LESLEY 1965-02-24 03:00:00 TS -25.6551 40.0360 main 401 399 P____P___PP_P_ SH281965 -25.2575 40.3001 -1 -26.8449 39.2647 99 -25.2575 40.3001 TC 25 -25.2603 40.2791 1 -26.8449 39.2647 TC 25 7 0
1965051S19041 1965 22 SI MM LESLEY 1965-02-24 06:00:00 MX -25.9714 40.0571 reunion main 403 403 O____O___OO_O_ jtwc_sh SH281965 -25.7000 40.2000 -1 -27.6000 39.2000 5 9.90000 -25.7000 40.2000 TC 25 -25.7000 40.2000 1 -27.6000 39.2000 EX 25 5 168
1965051S19041 1965 22 SI MM LESLEY 1965-02-24 09:00:00 TS -26.1084 40.1415 main 407 407 P________PP___ SH281965 -26.1075 40.1498 -1 5 -26.1075 40.1498 TC 25 -26.1103 40.1248 1 EX 5 0
1965051S19041 1965 22 SI MM LESLEY 1965-02-24 12:00:00 TS -26.5025 40.0832 main 424 424 O________OP___ jtwc_sh SH281965 -26.5000 40.1000 -1 -26.5000 40.1000 TC 25 -26.5075 40.0497 1 8 190
1965051S19041 1965 22 SI MM LESLEY 1965-02-24 15:00:00 TS -26.9003 39.9916 main 452 452 P________PP___ SH281965 -26.9000 40.0001 -1 -26.9000 40.0001 TC 25 -26.9009 39.9748 1 8 191
1965051S19041 1965 22 SI MM LESLEY 1965-02-24 18:00:00 TS -27.3000 39.9000 main 482 482 O________OO___ jtwc_sh SH281965 -27.3000 39.9000 -1 -27.3000 39.9000 TC 25 -27.3000 39.9000 1 8 190
1965051S19041 1965 22 SI MM LESLEY 1965-02-24 21:00:00 TS -27.6834 39.8375 main 515 515 P________PP___ SH281965 -27.6925 39.8498 -1 -27.6925 39.8498 TC 25 -27.6651 39.8129 1 8 188
1965051S19041 1965 22 SI MM LESLEY 1965-02-25 00:00:00 TS -28.0817 39.7759 main 542 542 O________OP___ jtwc_sh SH281965 -28.1000 39.8000 -1 -28.1000 39.8000 TC 25 -28.0452 39.7277 1 8 190
1965051S19041 1965 22 SI MM LESLEY 1965-02-25 03:00:00 TS -28.4959 39.6846 main 578 578 P________PP___ SH281965 -28.5050 39.7000 -1 -28.5050 39.7000 TC 25 -28.4776 39.6537 1 9 190
1965051S19041 1965 22 SI MM LESLEY 1965-02-25 06:00:00 TS -29.0000 39.6000 main 623 623 O________OO___ jtwc_sh SH281965 -29.0000 39.6000 -1 -29.0000 39.6000 TC 25 -29.0000 39.6000 1 12 187
1965051S19041 1965 22 SI MM LESLEY 1965-02-25 09:00:00 TS -29.6530 39.5163 main 687 687 P________PP___ SH281965 -29.6475 39.5277 -1 -29.6475 39.5277 TC 25 -29.6640 39.4935 1 14 185
1965051S19041 1965 22 SI MM LESLEY 1965-02-25 12:00:00 TS -30.4054 39.4732 main 718 718 O________OP___ jtwc_sh SH281965 -30.4000 39.5000 -1 -30.4000 39.5000 TC 25 -30.4162 39.4197 1 16 181
1965051S19041 1965 22 SI MM LESLEY 1965-02-25 15:00:00 TS -31.2033 39.4724 main 747 747 P________PP___ SH281965 -31.1998 39.4908 -1 -31.1998 39.4908 TC 25 -31.2103 39.4355 1 16 176
1965051S19041 1965 22 SI MM LESLEY 1965-02-25 18:00:00 TS -32.0000 39.6000 main 793 793 O________OO___ jtwc_sh SH281965 -32.0000 39.6000 -1 -32.0000 39.6000 TC 25 -32.0000 39.6000 7 16 167
1965051S19041 1965 22 SI MM LESLEY 1965-02-25 21:00:00 TS -32.7257 39.8827 main 855 855 P________PP___ SH281965 -32.7144 39.8461 -1 -32.7144 39.8461 TC 25 -32.7483 39.9559 7 16 156
1965051S19041 1965 22 SI MM LESLEY 1965-02-26 00:00:00 TS -33.4189 40.3580 main 937 937 O________OP___ jtwc_sh SH281965 -33.4000 40.3000 -1 -33.4000 40.3000 TC 25 -33.4568 40.4741 7 17 145
1965051S19041 1965 22 SI MM LESLEY 1965-02-26 03:00:00 TS -34.1099 41.0230 main 1026 1026 P________PP___ SH281965 -34.0965 40.9817 -1 -34.0965 40.9817 TC 25 -34.1368 41.1057 7 18 139
1965051S19041 1965 22 SI MM LESLEY 1965-02-26 06:00:00 TS -34.8000 41.8000 main 1077 O________OO___ jtwc_sh SH281965 -34.8000 41.8000 -1 -34.8000 41.8000 TC 25 -34.8000 41.8000 7 19 137

IBTrACS Databaseについて

本データベースは、米国NOAAが公開する1842年以降の世界の熱帯低気圧のベストトラックデータアーカイブInternational Best Track Archive for Climate Stewardship (IBTrACS)を、ウェブで閲覧しやすい形式に変換したものです。

最終更新日:2021-12-06